createdAt,value
2019-02-27T00:03:29.121Z,35.50
2019-02-27T00:08:33.503Z,35.40
2019-02-27T00:13:37.259Z,35.50
2019-02-27T00:18:40.964Z,35.50
2019-02-27T00:23:44.627Z,35.40
2019-02-27T00:28:48.561Z,35.50
2019-02-27T00:33:52.216Z,35.40
2019-02-27T00:38:57.941Z,35.30
2019-02-27T00:44:01.937Z,36.10
2019-02-27T00:49:05.963Z,35.40
2019-02-27T00:54:09.603Z,35.40
2019-02-27T00:59:13.265Z,35.40
2019-02-27T01:04:16.891Z,35.40
2019-02-27T01:09:20.719Z,35.50
2019-02-27T01:14:24.415Z,35.50
2019-02-27T01:19:28.100Z,35.40
2019-02-27T01:24:32.675Z,35.40
2019-02-27T01:29:36.543Z,35.30
2019-02-27T01:34:44.155Z,35.40
2019-02-27T01:39:45.633Z,35.30
2019-02-27T01:44:49.307Z,35.30
2019-02-27T01:49:52.969Z,35.30
2019-02-27T01:54:56.602Z,35.30
2019-02-27T02:00:00.358Z,35.30
2019-02-27T02:05:04.263Z,35.30
2019-02-27T02:10:08.735Z,35.20
2019-02-27T02:16:02.919Z,35.20
2019-02-27T02:21:40.499Z,35.20
2019-02-27T02:27:08.240Z,35.20
2019-02-27T02:32:30.000Z,35.20
2019-02-27T02:37:57.392Z,35.20
2019-02-27T02:43:40.146Z,35.10
2019-02-27T02:49:19.879Z,35.20
2019-02-27T02:55:04.679Z,35.10
2019-02-27T03:00:37.824Z,35.10
2019-02-27T03:06:34.662Z,35.20
2019-02-27T03:11:59.777Z,35.20
2019-02-27T03:17:42.588Z,35.10
2019-02-27T03:23:08.531Z,35.10
2019-02-27T03:28:40.714Z,35.10
2019-02-27T03:34:22.004Z,35.10
2019-02-27T03:39:36.726Z,35.10
2019-02-27T03:45:30.617Z,35.10
2019-02-27T03:51:00.387Z,35.10
2019-02-27T03:56:34.153Z,35.00
2019-02-27T04:02:20.792Z,35.00
2019-02-27T04:07:45.922Z,35.00
2019-02-27T04:12:51.645Z,35.10
2019-02-27T04:17:53.887Z,35.00
2019-02-27T04:22:57.572Z,35.00
2019-02-27T04:28:01.235Z,35.00
2019-02-27T04:33:04.945Z,34.90
2019-02-27T04:38:08.593Z,34.90
2019-02-27T04:43:12.367Z,34.90
2019-02-27T04:48:16.043Z,35.00
2019-02-27T04:53:19.691Z,34.80
2019-02-27T04:58:23.326Z,34.80
2019-02-27T05:03:28.527Z,34.70
2019-02-27T05:08:32.428Z,34.70
2019-02-27T05:13:36.096Z,34.80
2019-02-27T05:18:39.861Z,34.70
2019-02-27T05:23:43.530Z,34.60
2019-02-27T05:28:47.183Z,34.70
2019-02-27T05:33:50.912Z,34.70
2019-02-27T05:38:54.644Z,34.80
2019-02-27T05:43:58.307Z,34.90
2019-02-27T05:49:02.031Z,34.90
2019-02-27T05:54:05.678Z,35.00
2019-02-27T05:59:09.804Z,35.00
2019-02-27T06:04:13.502Z,34.90
2019-02-27T06:09:17.187Z,35.10
2019-02-27T06:14:21.944Z,35.20
2019-02-27T06:19:25.989Z,35.50
2019-02-27T06:24:29.776Z,35.80
2019-02-27T06:29:33.507Z,35.90
2019-02-27T06:34:37.208Z,35.90
2019-02-27T06:39:40.935Z,36.00
2019-02-27T06:44:44.864Z,35.90
2019-02-27T06:49:49.048Z,35.90
2019-02-27T06:54:53.983Z,35.80
2019-02-27T07:00:02.200Z,35.80
2019-02-27T07:05:03.090Z,35.70
2019-02-27T07:10:07.750Z,35.70
2019-02-27T07:15:16.210Z,35.70
2019-02-27T07:20:23.800Z,35.70
2019-02-27T07:25:26.851Z,35.70
2019-02-27T07:30:31.049Z,35.60
2019-02-27T07:35:34.807Z,35.70
2019-02-27T07:40:42.714Z,35.60
2019-02-27T07:45:45.441Z,35.70
2019-02-27T07:50:49.946Z,35.70
2019-02-27T07:55:53.657Z,35.80
2019-02-27T08:00:57.295Z,35.80
2019-02-27T08:06:02.431Z,35.70
2019-02-27T08:11:06.776Z,35.70
2019-02-27T08:16:10.501Z,35.60
2019-02-27T08:21:14.153Z,35.50
2019-02-27T08:26:18.461Z,35.60
2019-02-27T08:31:22.513Z,35.50
2019-02-27T08:36:26.262Z,35.50
2019-02-27T08:41:31.488Z,35.50
2019-02-27T08:46:37.092Z,35.30
2019-02-27T08:51:42.101Z,35.50
2019-02-27T08:56:47.149Z,35.40
2019-02-27T09:01:55.246Z,35.30
2019-02-27T09:07:02.125Z,35.30
2019-02-27T09:12:03.184Z,35.10
2019-02-27T09:17:07.399Z,35.20
2019-02-27T09:22:11.257Z,35.10
2019-02-27T09:27:15.022Z,35.10
2019-02-27T09:32:20.428Z,35.00
2019-02-27T09:37:24.356Z,35.00
2019-02-27T09:42:28.047Z,35.00
2019-02-27T09:47:31.892Z,34.90
2019-02-27T09:52:35.699Z,34.90
2019-02-27T09:57:39.427Z,34.80
2019-02-27T10:02:46.140Z,35.40
2019-02-27T10:07:51.358Z,34.80
2019-02-27T10:12:54.040Z,34.80
2019-02-27T10:17:57.924Z,34.70
2019-02-27T10:23:01.839Z,34.90
2019-02-27T10:28:05.620Z,34.70
2019-02-27T10:33:11.114Z,34.70
2019-02-27T10:38:14.882Z,34.60
2019-02-27T10:43:21.137Z,34.60
2019-02-27T10:48:25.371Z,34.70
2019-02-27T10:53:29.057Z,34.70
2019-02-27T10:58:32.764Z,34.60
2019-02-27T11:03:36.629Z,34.60
2019-02-27T11:08:40.557Z,34.70
2019-02-27T11:13:48.468Z,34.70
2019-02-27T11:18:52.918Z,34.60
2019-02-27T11:23:56.648Z,34.60
2019-02-27T11:29:00.425Z,34.60
2019-02-27T11:34:05.074Z,34.60
2019-02-27T11:39:09.722Z,34.60
2019-02-27T11:44:14.329Z,34.50
2019-02-27T11:49:18.758Z,34.50
2019-02-27T11:54:22.490Z,34.50
2019-02-27T11:59:26.491Z,34.60
2019-02-27T12:04:30.263Z,34.50
2019-02-27T12:09:35.190Z,34.40
2019-02-27T12:14:39.547Z,34.50
2019-02-27T12:19:45.182Z,34.50
2019-02-27T12:24:50.316Z,34.40
2019-02-27T12:30:14.928Z,34.40
2019-02-27T12:35:20.971Z,34.40
2019-02-27T12:40:25.239Z,34.40
2019-02-27T12:45:30.456Z,34.30
2019-02-27T12:50:34.441Z,34.30
2019-02-27T12:55:38.148Z,34.30
2019-02-27T13:00:42.512Z,34.30
2019-02-27T13:05:46.923Z,34.20
2019-02-27T13:10:50.686Z,34.20
2019-02-27T13:15:54.556Z,34.10
2019-02-27T13:20:59.160Z,34.20
2019-02-27T13:26:02.820Z,34.10
2019-02-27T13:31:06.534Z,34.10
2019-02-27T13:36:10.255Z,34.00
2019-02-27T13:41:14.026Z,34.00
2019-02-27T13:46:20.208Z,34.00
2019-02-27T13:51:23.435Z,34.00
2019-02-27T13:56:27.562Z,34.00
2019-02-27T14:01:31.966Z,34.10
2019-02-27T14:06:35.884Z,34.10
2019-02-27T14:11:40.915Z,34.00
2019-02-27T14:16:44.718Z,34.00
2019-02-27T14:21:48.395Z,34.00
2019-02-27T14:26:52.150Z,34.00
2019-02-27T14:31:55.918Z,34.10
2019-02-27T14:37:00.045Z,34.00
2019-02-27T14:42:04.097Z,34.00
2019-02-27T14:47:08.174Z,34.00
2019-02-27T14:52:14.288Z,34.00
2019-02-27T14:57:17.615Z,34.00
2019-02-27T15:02:22.320Z,33.90
2019-02-27T15:07:26.834Z,33.90
2019-02-27T15:12:30.572Z,33.90
2019-02-27T15:17:34.421Z,33.80
2019-02-27T15:22:38.339Z,33.80
2019-02-27T15:27:42.108Z,33.80
2019-02-27T15:32:45.998Z,33.80
2019-02-27T15:37:50.142Z,33.80
2019-02-27T15:42:53.800Z,33.70
2019-02-27T15:47:57.770Z,33.70
2019-02-27T15:53:01.570Z,33.60
2019-02-27T15:58:05.358Z,33.60
2019-02-27T16:03:12.263Z,33.60
2019-02-27T16:08:16.101Z,33.50
2019-02-27T16:13:19.799Z,33.50
2019-02-27T16:18:23.543Z,33.50
2019-02-27T16:23:37.223Z,33.60
2019-02-27T16:28:38.070Z,33.50
2019-02-27T16:33:41.933Z,33.40
2019-02-27T16:38:46.000Z,33.40
2019-02-27T16:43:49.946Z,33.40
2019-02-27T16:48:53.832Z,33.40
2019-02-27T16:53:58.130Z,33.30
2019-02-27T16:59:07.600Z,33.30
2019-02-27T17:04:08.055Z,33.30
2019-02-27T17:09:13.327Z,33.30
2019-02-27T17:14:17.270Z,33.30
2019-02-27T17:19:21.041Z,33.30
2019-02-27T17:24:28.193Z,33.30
2019-02-27T17:29:32.007Z,33.20
2019-02-27T17:34:35.765Z,33.20
2019-02-27T17:39:39.618Z,33.20
2019-02-27T17:44:43.453Z,33.20
2019-02-27T17:49:47.775Z,33.20
2019-02-27T17:54:51.637Z,33.20
2019-02-27T17:59:55.442Z,33.10
2019-02-27T18:05:00.189Z,33.20
2019-02-27T18:10:04.348Z,33.10
2019-02-27T18:15:09.940Z,33.10
2019-02-27T18:20:13.776Z,33.10
2019-02-27T18:25:18.183Z,33.00
2019-02-27T18:30:22.222Z,33.60
2019-02-27T18:35:28.676Z,33.00
2019-02-27T18:40:32.713Z,32.90
2019-02-27T18:45:36.455Z,32.80
2019-02-27T18:50:40.216Z,32.80
2019-02-27T18:55:44.138Z,32.70
2019-02-27T19:00:48.186Z,32.70
2019-02-27T19:05:51.891Z,32.70
2019-02-27T19:10:55.850Z,32.70
2019-02-27T19:15:59.715Z,32.70
2019-02-27T19:21:03.814Z,32.80
2019-02-27T19:26:09.366Z,33.00
2019-02-27T19:31:16.403Z,33.40
2019-02-27T19:36:19.403Z,33.60
2019-02-27T19:41:23.592Z,33.90
2019-02-27T19:46:27.521Z,34.00
2019-02-27T19:51:31.254Z,34.00
2019-02-27T19:56:35.510Z,33.90
2019-02-27T20:01:43.671Z,33.80
2019-02-27T20:06:46.004Z,33.70
2019-02-27T20:11:49.832Z,33.70
2019-02-27T20:16:55.209Z,33.60
2019-02-27T20:21:59.766Z,33.60
2019-02-27T20:27:03.540Z,33.50
2019-02-27T20:32:07.292Z,33.40
2019-02-27T20:37:11.088Z,33.40
2019-02-27T20:42:15.238Z,33.40
2019-02-27T20:47:21.841Z,33.40
2019-02-27T20:52:24.498Z,33.30
2019-02-27T20:57:28.322Z,33.30
2019-02-27T21:02:32.003Z,33.30
2019-02-27T21:07:35.681Z,33.20
2019-02-27T21:12:40.809Z,33.10
2019-02-27T21:17:44.930Z,33.00
2019-02-27T21:22:48.751Z,33.00
2019-02-27T21:27:52.556Z,33.00
2019-02-27T21:32:56.714Z,33.20
2019-02-27T21:38:00.554Z,33.20
2019-02-27T21:43:06.663Z,33.20
2019-02-27T21:48:10.414Z,33.20
2019-02-27T21:53:14.061Z,33.10
2019-02-27T21:58:20.637Z,33.00
2019-02-27T22:03:23.207Z,33.00
2019-02-27T22:08:26.859Z,32.90
2019-02-27T22:13:32.307Z,32.90
2019-02-27T22:18:35.957Z,33.00
2019-02-27T22:23:39.707Z,33.00
2019-02-27T22:28:43.506Z,33.10
2019-02-27T22:33:47.293Z,33.10
2019-02-27T22:38:50.997Z,33.10
2019-02-27T22:43:55.759Z,33.10
2019-02-27T22:49:01.185Z,33.20
2019-02-27T22:54:06.788Z,33.10
2019-02-27T22:59:10.551Z,33.20
2019-02-27T23:04:16.732Z,33.20
2019-02-27T23:09:40.204Z,33.20
2019-02-27T23:14:44.026Z,33.20
2019-02-27T23:19:49.122Z,33.20
2019-02-27T23:25:05.038Z,33.20
2019-02-27T23:30:14.792Z,33.20
2019-02-27T23:35:16.782Z,33.20
2019-02-27T23:40:19.922Z,33.20
2019-02-27T23:45:23.730Z,33.20
2019-02-27T23:50:27.415Z,33.20
2019-02-27T23:55:31.038Z,33.20
